Time;durP1;ratioP1;P1;durP2;ratioP2;P2;SDS_P1;SDS_P2;PMS_P1;PMS_P2;Temp;Humidity;BMP_temperature;BMP_pressure;BME280_temperature;BME280_humidity;BME280_pressure;Samples;Min_cycle;Max_cycle;Signal;HPM_P1;HPM_P2
2023/04/16 00:00:47;;;;;;;7.90;5.43;;;10.20;99.90;;;;;;4992174;28;20483;-77
2023/04/16 00:03:13;;;;;;;7.97;5.00;;;10.20;99.90;;;;;;4992730;28;20030;-77
2023/04/16 00:05:38;;;;;;;8.73;5.00;;;10.20;99.90;;;;;;4993583;28;20375;-78
2023/04/16 00:08:04;;;;;;;8.43;5.30;;;10.20;99.90;;;;;;4992734;28;20026;-77
2023/04/16 00:10:30;;;;;;;7.95;5.22;;;10.20;99.90;;;;;;4992637;28;20085;-77
2023/04/16 00:12:55;;;;;;;7.03;4.75;;;10.20;99.90;;;;;;4992089;28;20065;-77
2023/04/16 00:15:21;;;;;;;7.60;4.97;;;10.20;99.90;;;;;;4993932;28;20482;-77
2023/04/16 00:17:47;;;;;;;9.15;5.45;;;10.20;99.90;;;;;;4993328;28;20128;-74
2023/04/16 00:20:12;;;;;;;8.13;5.45;;;10.20;99.90;;;;;;4992495;28;20037;-75
2023/04/16 00:22:38;;;;;;;7.22;5.10;;;10.30;99.90;;;;;;4993512;28;20069;-73
2023/04/16 00:25:04;;;;;;;8.93;5.15;;;10.20;99.90;;;;;;4992436;28;20037;-77
2023/04/16 00:27:30;;;;;;;9.07;5.30;;;10.20;99.90;;;;;;4991779;28;20033;-77
2023/04/16 00:29:55;;;;;;;10.45;5.60;;;10.20;99.90;;;;;;4991800;28;20463;-77
2023/04/16 00:32:21;;;;;;;7.00;5.20;;;10.10;99.90;;;;;;4993659;28;20089;-77
2023/04/16 00:34:46;;;;;;;8.13;5.35;;;10.10;99.90;;;;;;4991873;28;20036;-77
2023/04/16 00:37:12;;;;;;;10.55;6.03;;;10.10;99.90;;;;;;4993229;28;20088;-77
2023/04/16 00:39:37;;;;;;;7.95;5.65;;;10.10;99.90;;;;;;4993288;28;20042;-77
2023/04/16 00:42:03;;;;;;;9.50;5.95;;;10.20;99.90;;;;;;4992649;28;20128;-77
2023/04/16 00:44:29;;;;;;;7.30;5.22;;;10.20;99.90;;;;;;4992015;28;20042;-77
2023/04/16 00:46:56;;;;;;;8.10;5.50;;;10.20;99.90;;;;;;4992858;28;20117;-77
2023/04/16 00:49:23;;;;;;;9.50;6.10;;;10.20;99.90;;;;;;4993433;28;20033;-77
2023/04/16 00:51:49;;;;;;;9.15;5.70;;;10.20;99.90;;;;;;4991661;28;20034;-77
2023/04/16 00:54:15;;;;;;;9.52;5.88;;;10.30;99.90;;;;;;4993356;28;20058;-76
2023/04/16 00:56:41;;;;;;;9.55;5.60;;;10.30;99.90;;;;;;4991625;28;20419;-77
2023/04/16 00:59:07;;;;;;;9.27;5.95;;;10.30;99.90;;;;;;4991371;28;20117;-77
2023/04/16 01:01:33;;;;;;;10.45;6.68;;;10.30;99.90;;;;;;4991843;28;20034;-77
2023/04/16 01:03:59;;;;;;;9.02;6.28;;;10.30;99.90;;;;;;4992117;28;20037;-77
2023/04/16 01:06:25;;;;;;;11.43;6.45;;;10.30;99.90;;;;;;4991898;28;20479;-77
2023/04/16 01:08:51;;;;;;;9.55;6.43;;;10.20;99.90;;;;;;4992637;28;20109;-77
2023/04/16 01:11:16;;;;;;;9.05;5.80;;;10.20;99.90;;;;;;4991729;28;20062;-76
2023/04/16 01:13:42;;;;;;;11.48;6.75;;;10.10;99.90;;;;;;4992715;28;20388;-76
2023/04/16 01:16:09;;;;;;;10.15;6.53;;;10.20;99.90;;;;;;4993083;28;20031;-77
2023/04/16 01:18:36;;;;;;;10.35;6.80;;;10.20;99.90;;;;;;4991910;28;20033;-77
2023/04/16 01:21:01;;;;;;;10.60;6.22;;;10.20;99.90;;;;;;4992201;28;20485;-76
2023/04/16 01:23:27;;;;;;;11.65;6.88;;;10.20;99.90;;;;;;4991618;28;20031;-77
2023/04/16 01:25:52;;;;;;;10.95;6.82;;;10.20;99.90;;;;;;4991032;28;20121;-78
2023/04/16 01:28:18;;;;;;;8.93;6.13;;;10.30;99.90;;;;;;4992672;28;20037;-77
2023/04/16 01:30:44;;;;;;;12.38;7.82;;;10.20;99.90;;;;;;4991005;28;20038;-77
2023/04/16 01:33:10;;;;;;;29.63;16.70;;;10.30;99.90;;;;;;4991557;28;20026;-77
2023/04/16 01:35:36;;;;;;;14.98;8.98;;;10.30;99.90;;;;;;4991659;28;20026;-77
2023/04/16 01:38:02;;;;;;;10.77;7.28;;;10.30;99.90;;;;;;4991715;28;20022;-77
2023/04/16 01:40:28;;;;;;;12.27;7.85;;;10.30;99.90;;;;;;4995245;28;20069;-77
2023/04/16 01:42:54;;;;;;;12.07;6.70;;;10.20;99.90;;;;;;4994521;28;20087;-77
2023/04/16 01:45:20;;;;;;;15.40;7.80;;;10.20;99.90;;;;;;4995373;28;20054;-77
2023/04/16 01:47:45;;;;;;;11.32;7.10;;;10.20;99.90;;;;;;4994935;28;20037;-76
2023/04/16 01:50:11;;;;;;;12.07;7.40;;;10.20;99.90;;;;;;4995611;28;20027;-76
2023/04/16 01:52:37;;;;;;;11.70;7.50;;;10.20;99.90;;;;;;4995325;28;20037;-77
2023/04/16 01:55:02;;;;;;;10.48;6.93;;;10.20;99.90;;;;;;4995692;28;20030;-78
2023/04/16 01:57:28;;;;;;;12.93;7.70;;;10.20;99.90;;;;;;4996945;28;20037;-76
2023/04/16 01:59:54;;;;;;;13.25;7.70;;;10.20;99.90;;;;;;4994714;28;20022;-76
2023/04/16 02:02:22;;;;;;;13.60;7.43;;;10.20;99.90;;;;;;4995248;28;20030;-77
2023/04/16 02:04:48;;;;;;;11.35;7.22;;;10.20;99.90;;;;;;4995822;28;20033;-78
2023/04/16 02:07:13;;;;;;;12.48;7.55;;;10.10;99.90;;;;;;4996224;28;20026;-77
2023/04/16 02:09:40;;;;;;;11.90;7.40;;;10.10;99.90;;;;;;4996241;28;20452;-77
2023/04/16 02:12:06;;;;;;;11.73;7.47;;;10.10;99.90;;;;;;4994360;28;20033;-77
2023/04/16 02:14:32;;;;;;;14.25;8.05;;;10.10;99.90;;;;;;4996228;28;20105;-76
2023/04/16 02:16:59;;;;;;;11.55;7.40;;;10.10;99.90;;;;;;4994448;28;20113;-77
2023/04/16 02:19:25;;;;;;;11.07;7.30;;;10.20;99.90;;;;;;4995135;28;20084;-77
2023/04/16 02:21:51;;;;;;;13.38;8.27;;;10.10;99.90;;;;;;4995570;28;20042;-77
2023/04/16 02:24:17;;;;;;;11.48;7.40;;;10.10;99.90;;;;;;4994588;28;20038;-76
2023/04/16 02:26:44;;;;;;;12.48;7.55;;;10.10;99.90;;;;;;4994831;28;20030;-77
2023/04/16 02:29:10;;;;;;;10.57;7.03;;;10.10;99.90;;;;;;4995385;28;20027;-76
2023/04/16 02:31:35;;;;;;;13.05;7.85;;;10.10;99.90;;;;;;4994949;28;20032;-77
2023/04/16 02:34:01;;;;;;;12.85;7.85;;;10.20;99.90;;;;;;4993918;28;20026;-77
2023/04/16 02:36:27;;;;;;;13.95;8.30;;;10.20;99.90;;;;;;4995783;28;20026;-76
2023/04/16 02:38:52;;;;;;;12.02;7.57;;;10.20;99.90;;;;;;4993770;28;20459;-77
2023/04/16 02:41:18;;;;;;;11.55;7.53;;;10.20;99.90;;;;;;4995695;28;20487;-77
2023/04/16 02:43:44;;;;;;;11.50;7.15;;;10.20;99.90;;;;;;4995704;28;20078;-77
2023/04/16 02:46:09;;;;;;;11.98;7.07;;;10.20;99.90;;;;;;4993838;28;20407;-77
2023/04/16 02:48:35;;;;;;;10.93;7.45;;;10.30;99.90;;;;;;4995627;28;20492;-77
2023/04/16 02:51:00;;;;;;;11.48;7.57;;;10.20;99.90;;;;;;4993647;28;20109;-77
2023/04/16 02:53:26;;;;;;;11.63;7.45;;;10.20;99.90;;;;;;4994440;28;20456;-76
2023/04/16 02:55:53;;;;;;;12.50;7.15;;;10.10;99.90;;;;;;4993746;28;20420;-77
2023/04/16 02:58:20;;;;;;;12.85;7.70;;;10.20;99.90;;;;;;4995513;28;20045;-77
2023/04/16 03:00:46;;;;;;;12.00;7.00;;;10.20;99.90;;;;;;4993915;28;20097;-77
2023/04/16 03:03:11;;;;;;;13.90;7.65;;;10.20;99.90;;;;;;4993297;28;20030;-77
2023/04/16 03:05:37;;;;;;;12.65;7.53;;;10.20;99.90;;;;;;4995166;28;20383;-77
2023/04/16 03:08:03;;;;;;;13.75;7.30;;;10.20;99.90;;;;;;4992888;28;20423;-77
2023/04/16 03:10:29;;;;;;;10.45;6.85;;;10.20;99.90;;;;;;4995071;28;20041;-76
2023/04/16 03:12:54;;;;;;;16.00;8.07;;;10.30;99.90;;;;;;4992979;28;20030;-77
2023/04/16 03:15:20;;;;;;;13.45;7.25;;;10.30;99.90;;;;;;4994897;28;20030;-76
2023/04/16 03:17:46;;;;;;;12.52;7.57;;;10.30;99.90;;;;;;4994955;28;20072;-77
2023/04/16 03:20:11;;;;;;;12.05;7.53;;;10.30;99.90;;;;;;4992985;28;20026;-77
2023/04/16 03:22:38;;;;;;;12.55;7.93;;;10.30;99.90;;;;;;4994900;28;20022;-77
2023/04/16 03:25:04;;;;;;;12.65;7.55;;;10.30;99.90;;;;;;4992660;28;20483;-76
2023/04/16 03:27:29;;;;;;;11.32;7.53;;;10.30;99.90;;;;;;4993406;28;20030;-77
2023/04/16 03:29:55;;;;;;;11.57;6.82;;;10.20;99.90;;;;;;4992562;28;20440;-77
2023/04/16 03:32:21;;;;;;;10.77;6.85;;;10.20;99.90;;;;;;4993499;28;20523;-77
2023/04/16 03:34:47;;;;;;;15.32;7.93;;;10.20;99.90;;;;;;4994610;28;20023;-77
2023/04/16 03:37:12;;;;;;;11.63;7.30;;;10.10;99.90;;;;;;4992657;28;20038;-77
2023/04/16 03:39:38;;;;;;;11.88;7.15;;;10.10;99.90;;;;;;4994120;28;20106;-77
2023/04/16 03:42:03;;;;;;;13.45;7.43;;;10.10;99.90;;;;;;4993768;28;20482;-77
2023/04/16 03:44:29;;;;;;;11.23;7.13;;;10.10;99.90;;;;;;4993029;28;20027;-77
2023/04/16 03:46:56;;;;;;;10.93;6.82;;;10.20;99.90;;;;;;4992257;28;20138;-77
2023/04/16 03:49:21;;;;;;;15.43;7.72;;;10.20;99.90;;;;;;4994058;28;20109;-77
2023/04/16 03:51:47;;;;;;;13.35;7.75;;;10.20;99.90;;;;;;4992917;28;20077;-76
2023/04/16 03:54:12;;;;;;;12.48;7.53;;;10.20;99.90;;;;;;4993380;28;20523;-77
2023/04/16 03:56:41;;;;;;;13.02;7.60;;;10.20;99.90;;;;;;4992910;28;20065;-77
2023/04/16 03:59:07;;;;;;;13.05;7.38;;;10.20;99.90;;;;;;4992437;28;20033;-77
2023/04/16 04:01:33;;;;;;;13.98;7.47;;;10.20;99.90;;;;;;4992066;28;20121;-77
2023/04/16 04:03:59;;;;;;;11.73;7.28;;;10.20;99.90;;;;;;4992972;28;20097;-77
2023/04/16 04:06:24;;;;;;;12.98;6.90;;;10.20;99.90;;;;;;4993992;28;20033;-77
2023/04/16 04:08:50;;;;;;;11.55;7.15;;;10.20;99.90;;;;;;4992474;28;20061;-77
2023/04/16 04:11:16;;;;;;;10.88;7.18;;;10.20;99.90;;;;;;4993415;28;20023;-77
2023/04/16 04:13:41;;;;;;;11.25;6.72;;;10.20;99.90;;;;;;4993861;28;20030;-77
2023/04/16 04:16:07;;;;;;;12.02;7.13;;;10.20;99.90;;;;;;4991847;28;20027;-77
2023/04/16 04:18:32;;;;;;;10.68;6.97;;;10.20;99.90;;;;;;4992469;28;20030;-77
2023/04/16 04:20:58;;;;;;;11.80;6.70;;;10.10;99.90;;;;;;4991794;28;20030;-77
2023/04/16 04:23:24;;;;;;;12.05;6.53;;;10.00;99.90;;;;;;4993708;28;20034;-76
2023/04/16 04:25:49;;;;;;;10.30;6.63;;;10.10;99.90;;;;;;4992543;28;20065;-77
2023/04/16 04:28:15;;;;;;;11.70;6.50;;;10.10;99.90;;;;;;4992638;28;20105;-77
2023/04/16 04:30:40;;;;;;;10.20;6.50;;;10.10;99.90;;;;;;4993316;28;20030;-77
2023/04/16 04:33:06;;;;;;;11.23;6.45;;;10.10;99.90;;;;;;4993074;28;20034;-77
2023/04/16 04:35:32;;;;;;;10.65;6.38;;;10.10;99.90;;;;;;4992469;28;20065;-76
2023/04/16 04:37:58;;;;;;;13.57;6.57;;;10.00;99.90;;;;;;4992553;28;20042;-77
2023/04/16 04:40:23;;;;;;;15.52;8.20;;;10.10;99.90;;;;;;4993416;28;20041;-77
2023/04/16 04:42:49;;;;;;;12.43;7.90;;;10.00;99.90;;;;;;4993642;28;20097;-77
2023/04/16 04:45:15;;;;;;;15.25;7.63;;;10.10;99.90;;;;;;4992380;28;20133;-77
2023/04/16 04:47:40;;;;;;;13.57;7.25;;;10.10;99.90;;;;;;4993257;28;20037;-77
2023/04/16 04:50:06;;;;;;;12.23;7.63;;;10.10;99.90;;;;;;4991322;28;20030;-77
2023/04/16 04:52:32;;;;;;;13.52;7.90;;;10.10;99.90;;;;;;4993698;28;20034;-77
2023/04/16 04:54:57;;;;;;;11.95;6.40;;;10.10;99.90;;;;;;4991394;28;20088;-77
2023/04/16 04:57:23;;;;;;;12.10;6.88;;;10.10;99.90;;;;;;4993157;28;20046;-77
2023/04/16 04:59:49;;;;;;;13.80;7.00;;;10.10;99.90;;;;;;4992278;28;20112;-77
2023/04/16 05:02:14;;;;;;;12.25;7.47;;;10.10;99.90;;;;;;4992477;28;20118;-76
2023/04/16 05:04:40;;;;;;;15.18;7.50;;;10.20;99.90;;;;;;4991827;28;20134;-77
2023/04/16 05:07:06;;;;;;;12.85;6.88;;;10.10;99.90;;;;;;4992452;28;20030;-77
2023/04/16 05:09:31;;;;;;;13.68;7.53;;;10.10;99.90;;;;;;4993220;28;20027;-77
2023/04/16 05:11:57;;;;;;;14.32;7.45;;;10.20;99.90;;;;;;4992414;28;20023;-76
2023/04/16 05:14:23;;;;;;;12.75;7.38;;;10.20;99.90;;;;;;4996216;28;20039;-77
2023/04/16 05:16:48;;;;;;;12.70;6.97;;;10.10;99.90;;;;;;4996050;28;20022;-77
2023/04/16 05:19:15;;;;;;;12.38;6.68;;;10.20;99.90;;;;;;4996641;28;20038;-77
2023/04/16 05:21:40;;;;;;;13.13;7.30;;;10.10;99.90;;;;;;4997188;28;20507;-78
2023/04/16 05:24:06;;;;;;;14.00;7.18;;;10.10;99.90;;;;;;4996674;28;20042;-76
2023/04/16 05:26:32;;;;;;;12.02;6.88;;;10.10;99.90;;;;;;4995941;28;20505;-77
2023/04/16 05:28:57;;;;;;;13.50;7.43;;;10.20;99.90;;;;;;4996363;28;20027;-77
2023/04/16 05:31:23;;;;;;;13.32;6.95;;;10.20;99.90;;;;;;4996864;28;20040;-78
2023/04/16 05:33:48;;;;;;;14.40;7.57;;;10.20;99.90;;;;;;4997092;28;20360;-77
2023/04/16 05:36:14;;;;;;;14.25;7.10;;;10.20;99.90;;;;;;4996352;28;20031;-77
2023/04/16 05:38:39;;;;;;;13.38;7.10;;;10.20;99.90;;;;;;4995796;28;20515;-77
2023/04/16 05:41:05;;;;;;;12.45;6.97;;;10.20;99.90;;;;;;4994709;28;20454;-78
2023/04/16 05:43:31;;;;;;;14.50;7.32;;;10.20;99.90;;;;;;4996498;28;20041;-77
2023/04/16 05:45:56;;;;;;;15.07;8.00;;;10.10;99.90;;;;;;4995111;28;20522;-75
2023/04/16 05:48:22;;;;;;;13.60;7.30;;;10.10;99.90;;;;;;4994911;28;20062;-77
2023/04/16 05:50:48;;;;;;;11.93;6.72;;;10.20;99.90;;;;;;4995465;28;20356;-77
2023/04/16 05:53:14;;;;;;;12.98;6.78;;;10.10;99.90;;;;;;4995953;28;20053;-77
2023/04/16 05:55:39;;;;;;;11.60;6.65;;;10.20;99.90;;;;;;4995289;28;20026;-77
2023/04/16 05:58:05;;;;;;;14.57;7.00;;;10.20;99.90;;;;;;4994369;28;20022;-77
2023/04/16 06:00:32;;;;;;;13.20;7.28;;;10.20;99.90;;;;;;4996104;28;20030;-77
2023/04/16 06:02:57;;;;;;;12.93;7.05;;;10.20;99.90;;;;;;4996437;28;20030;-76
2023/04/16 06:05:25;;;;;;;14.68;6.82;;;10.20;99.90;;;;;;4996388;28;20030;-77
2023/04/16 06:07:51;;;;;;;13.27;6.68;;;10.20;99.90;;;;;;4996703;28;20061;-77
2023/04/16 06:10:16;;;;;;;13.60;6.53;;;10.20;99.90;;;;;;4994442;28;20026;-77
2023/04/16 06:12:42;;;;;;;12.90;6.47;;;10.20;99.90;;;;;;4994685;28;20116;-77
2023/04/16 06:15:08;;;;;;;12.68;6.97;;;10.20;99.90;;;;;;4995388;28;20041;-77
2023/04/16 06:17:34;;;;;;;13.75;6.63;;;10.30;99.90;;;;;;4994815;28;20542;-77
2023/04/16 06:19:59;;;;;;;12.95;6.93;;;10.30;99.90;;;;;;4996041;28;20113;-78
2023/04/16 06:22:25;;;;;;;12.32;6.50;;;10.30;99.90;;;;;;4994948;28;20408;-77
2023/04/16 06:24:51;;;;;;;11.60;6.10;;;10.30;99.90;;;;;;4995037;28;20030;-77
2023/04/16 06:27:17;;;;;;;15.27;6.30;;;10.30;99.90;;;;;;4994136;28;20026;-77
2023/04/16 06:29:43;;;;;;;12.30;6.55;;;10.30;99.90;;;;;;4996270;28;20042;-77
2023/04/16 06:32:08;;;;;;;15.82;7.03;;;10.40;99.90;;;;;;4994078;28;20137;-77
2023/04/16 06:34:34;;;;;;;12.05;6.75;;;10.40;99.90;;;;;;4995633;28;20037;-77
2023/04/16 06:37:00;;;;;;;12.23;6.90;;;10.40;99.90;;;;;;4994084;28;20471;-77
2023/04/16 06:39:26;;;;;;;12.93;7.13;;;10.40;99.90;;;;;;4995907;28;20036;-77
2023/04/16 06:41:52;;;;;;;11.93;5.93;;;10.40;99.90;;;;;;4994368;28;20506;-76
2023/04/16 06:44:17;;;;;;;10.57;6.13;;;10.40;99.90;;;;;;4994061;28;20054;-76
2023/04/16 06:46:43;;;;;;;12.35;5.97;;;10.40;99.90;;;;;;4994025;28;20415;-77
2023/04/16 06:49:08;;;;;;;9.95;5.35;;;10.40;99.90;;;;;;4995126;28;20022;-77
2023/04/16 06:51:34;;;;;;;9.98;5.90;;;10.50;99.90;;;;;;4994257;28;20427;-77
2023/04/16 06:53:59;;;;;;;11.00;5.72;;;10.50;99.90;;;;;;4995596;28;20026;-77
2023/04/16 06:56:25;;;;;;;15.25;7.25;;;10.50;99.90;;;;;;4993776;28;20026;-76
2023/04/16 06:58:51;;;;;;;12.38;5.53;;;10.50;99.90;;;;;;4994678;28;20028;-77
2023/04/16 07:01:19;;;;;;;9.32;4.95;;;10.40;99.90;;;;;;4993287;28;20092;-77
2023/04/16 07:03:45;;;;;;;7.07;4.10;;;10.30;99.90;;;;;;4995353;28;20034;-77
2023/04/16 07:06:10;;;;;;;8.20;4.68;;;10.40;99.90;;;;;;4994791;28;20461;-77
2023/04/16 07:08:36;;;;;;;9.05;4.65;;;10.50;99.90;;;;;;4995435;28;20034;-77
2023/04/16 07:11:01;;;;;;;8.43;4.78;;;10.50;99.90;;;;;;4993629;28;20037;-77
2023/04/16 07:13:27;;;;;;;9.00;5.30;;;10.50;99.90;;;;;;4993513;28;20053;-77
2023/04/16 07:15:53;;;;;;;8.65;4.65;;;10.50;99.90;;;;;;4995012;28;20110;-76
2023/04/16 07:18:18;;;;;;;9.77;5.40;;;10.60;99.90;;;;;;4994738;28;20041;-77
2023/04/16 07:20:44;;;;;;;10.25;5.28;;;10.60;99.90;;;;;;4993780;28;20026;-77
2023/04/16 07:23:10;;;;;;;9.15;5.22;;;10.60;99.90;;;;;;4992854;28;20038;-77
2023/04/16 07:25:35;;;;;;;9.98;5.10;;;10.60;99.90;;;;;;4994676;28;20026;-77
2023/04/16 07:28:02;;;;;;;9.93;5.57;;;10.60;99.90;;;;;;4994163;28;20030;-77
2023/04/16 07:30:32;;;;;;;8.02;4.97;;;10.60;99.90;;;;;;4992427;28;20081;-77
2023/04/16 07:33:04;;;;;;;10.45;4.97;;;10.70;99.90;;;;;;4995266;28;20030;-77
2023/04/16 07:35:30;;;;;;;;;;;10.70;99.90;;;;;;5009647;28;20054;-77
2023/04/16 07:37:56;;;;;;;10.27;4.63;;;10.60;99.90;;;;;;4995178;28;19906;-77
2023/04/16 07:40:23;;;;;;;8.40;4.47;;;10.60;99.90;;;;;;4992917;28;20212;-77
2023/04/16 07:42:48;;;;;;;11.85;6.32;;;10.60;99.90;;;;;;5009920;28;20046;-77
2023/04/16 07:45:14;;;;;;;17.20;8.60;;;10.70;99.90;;;;;;5009131;28;20062;-77
2023/04/16 07:47:40;;;;;;;14.38;7.35;;;10.70;99.90;;;;;;4994477;28;20391;-77
2023/04/16 07:50:06;;;;;;;10.52;5.85;;;10.60;99.90;;;;;;4994070;28;20494;-78
2023/04/16 07:52:32;;;;;;;9.82;5.35;;;10.70;99.90;;;;;;4993277;28;20038;-77
2023/04/16 07:54:58;;;;;;;8.52;5.22;;;10.80;99.90;;;;;;4994376;28;20040;-77
2023/04/16 07:57:23;;;;;;;10.63;5.22;;;10.80;99.90;;;;;;4993495;28;20058;-77
2023/04/16 07:59:49;;;;;;;10.65;5.30;;;10.80;99.90;;;;;;5009484;28;20464;-76
2023/04/16 08:02:15;;;;;;;10.23;5.50;;;10.80;99.90;;;;;;5008471;28;20057;-77
2023/04/16 08:04:42;;;;;;;9.27;5.25;;;10.90;99.90;;;;;;4992840;28;20031;-77
2023/04/16 08:07:07;;;;;;;9.13;5.35;;;10.90;99.90;;;;;;4992281;28;20048;-77
2023/04/16 08:09:36;;;;;;;11.15;5.43;;;11.00;99.90;;;;;;4994167;28;20530;-77
2023/04/16 08:12:02;;;;;;;10.02;5.15;;;11.10;99.90;;;;;;4994082;28;20468;-76
2023/04/16 08:14:28;;;;;;;9.60;5.30;;;11.20;99.90;;;;;;4993145;28;20061;-77
2023/04/16 08:16:54;;;;;;;9.07;4.88;;;11.20;99.90;;;;;;4992727;28;20459;-77
2023/04/16 08:19:19;;;;;;;9.10;5.03;;;11.30;99.90;;;;;;4992049;28;20416;-76
2023/04/16 08:21:46;;;;;;;10.30;5.72;;;11.30;99.90;;;;;;4992433;28;20483;-76
2023/04/16 08:24:11;;;;;;;9.48;5.00;;;11.40;99.90;;;;;;4991973;28;20037;-77
2023/04/16 08:26:37;;;;;;;9.20;5.05;;;11.40;99.90;;;;;;4993679;28;20018;-76
2023/04/16 08:29:03;;;;;;;10.98;5.35;;;11.40;99.90;;;;;;4993635;28;20468;-76
2023/04/16 08:31:29;;;;;;;8.27;4.72;;;11.40;99.90;;;;;;4991947;28;20081;-77
2023/04/16 08:33:54;;;;;;;11.25;5.43;;;11.40;99.90;;;;;;4993392;28;20399;-77
2023/04/16 08:36:20;;;;;;;10.52;5.05;;;11.40;99.90;;;;;;4991714;28;20037;-77
2023/04/16 08:38:46;;;;;;;9.30;4.93;;;11.40;99.90;;;;;;5023477;28;20033;-77
2023/04/16 08:41:12;;;;;;;11.30;5.00;;;11.30;99.90;;;;;;5012110;28;20045;-77
2023/04/16 08:43:43;;;;;;;9.32;5.05;;;11.30;99.90;;;;;;5012153;28;20455;-77
2023/04/16 08:46:11;;;;;;;10.20;5.22;;;11.20;99.90;;;;;;5011961;28;20053;-77
2023/04/16 08:48:37;;;;;;;9.75;5.13;;;11.20;99.90;;;;;;5011478;28;20033;-77
2023/04/16 08:51:06;;;;;;;12.20;5.32;;;11.20;99.90;;;;;;5011971;28;20061;-77
2023/04/16 08:53:36;;;;;;;6.63;4.43;;;11.20;99.90;;;;;;5011690;28;20033;-77
2023/04/16 08:56:07;;;;;;;8.43;4.88;;;11.20;99.90;;;;;;5011863;28;20460;-77
2023/04/16 08:58:34;;;;;;;9.23;5.15;;;11.20;99.90;;;;;;5011887;28;20471;-77
2023/04/16 09:01:02;;;;;;;8.98;4.63;;;11.20;99.90;;;;;;5013094;28;20030;-76
2023/04/16 09:03:30;;;;;;;9.05;5.00;;;11.30;99.90;;;;;;5011815;28;20025;-76
2023/04/16 09:05:57;;;;;;;8.35;4.75;;;11.20;99.90;;;;;;5013053;28;20100;-77
2023/04/16 09:08:24;;;;;;;12.00;5.05;;;11.20;99.90;;;;;;5012706;28;20498;-77
2023/04/16 09:10:50;;;;;;;9.77;4.80;;;11.10;99.90;;;;;;5011772;28;20037;-77
2023/04/16 09:13:19;;;;;;;9.23;5.28;;;11.20;99.90;;;;;;5013385;28;20026;-78
2023/04/16 09:15:45;;;;;;;14.45;7.20;;;11.10;99.90;;;;;;5012010;28;20030;-77
2023/04/16 09:18:11;;;;;;;10.45;6.57;;;11.10;99.90;;;;;;5011345;28;20088;-78
2023/04/16 09:20:37;;;;;;;8.48;5.43;;;11.10;99.90;;;;;;5013362;28;20022;-77
2023/04/16 09:23:03;;;;;;;8.82;4.80;;;11.10;99.90;;;;;;5011781;28;20034;-78
2023/04/16 09:25:37;;;;;;;10.30;4.97;;;11.10;99.90;;;;;;5012544;28;20044;-77
2023/04/16 09:28:02;;;;;;;9.38;5.03;;;11.10;99.90;;;;;;5011682;28;20030;-76
2023/04/16 09:30:28;;;;;;;10.52;4.80;;;11.20;99.90;;;;;;5012188;28;20231;-77
2023/04/16 09:33:21;;;;;;;9.65;5.20;;;11.20;99.90;;;;;;5011777;28;20026;-76
2023/04/16 09:35:51;;;;;;;9.77;5.25;;;11.20;99.90;;;;;;5012821;28;20022;-76
2023/04/16 09:38:17;;;;;;;8.38;4.72;;;11.20;99.90;;;;;;5011003;28;20037;-79
2023/04/16 09:40:44;;;;;;;8.73;4.90;;;11.20;99.90;;;;;;5011371;28;20033;-76
2023/04/16 09:43:11;;;;;;;9.23;4.97;;;11.30;99.90;;;;;;4995707;28;20034;-78
2023/04/16 09:45:51;;;;;;;9.73;4.78;;;11.30;99.90;;;;;;4991288;28;20052;-77
2023/04/16 09:48:28;;;;;;;8.75;5.25;;;11.30;99.90;;;;;;4992454;28;20029;-77
2023/04/16 09:50:54;;;;;;;11.52;5.45;;;11.30;99.90;;;;;;4992460;28;20042;-77
2023/04/16 09:53:25;;;;;;;10.95;5.47;;;11.30;99.90;;;;;;4991423;28;20462;-77
2023/04/16 09:55:55;;;;;;;10.35;5.18;;;11.40;99.90;;;;;;4993288;28;20026;-77
2023/04/16 09:58:23;;;;;;;11.20;4.90;;;11.40;99.90;;;;;;4991464;28;20379;-77
2023/04/16 10:00:49;;;;;;;13.30;5.63;;;11.40;99.90;;;;;;5011580;28;20537;-77
2023/04/16 10:03:14;;;;;;;7.97;4.97;;;11.40;99.90;;;;;;4994950;28;20117;-77
2023/04/16 10:05:40;;;;;;;11.48;5.55;;;11.40;99.90;;;;;;4995198;28;20030;-77
2023/04/16 10:08:13;;;;;;;9.43;5.07;;;11.40;99.90;;;;;;4995176;28;20026;-77
2023/04/16 10:10:39;;;;;;;10.57;5.45;;;11.40;99.90;;;;;;4996319;28;20027;-77
2023/04/16 10:13:05;;;;;;;9.93;5.80;;;11.40;99.90;;;;;;4996390;28;20037;-77
2023/04/16 10:15:31;;;;;;;10.40;5.10;;;11.50;99.90;;;;;;4996071;28;20035;-78
2023/04/16 10:17:57;;;;;;;8.63;4.82;;;11.40;99.90;;;;;;4996929;28;20030;-77
2023/04/16 10:20:23;;;;;;;10.23;4.95;;;11.40;99.90;;;;;;4994677;28;20026;-76
2023/04/16 10:22:49;;;;;;;9.65;5.05;;;11.50;99.90;;;;;;4996489;28;20046;-75
2023/04/16 10:25:16;;;;;;;10.57;5.00;;;11.50;99.90;;;;;;4996000;28;20030;-78
2023/04/16 10:27:43;;;;;;;9.30;5.35;;;11.60;99.90;;;;;;4995089;28;20026;-76
2023/04/16 10:30:10;;;;;;;8.63;5.05;;;11.60;99.90;;;;;;4995185;28;20033;-77
2023/04/16 10:32:37;;;;;;;9.68;5.10;;;11.70;99.90;;;;;;4998797;28;20030;-78
2023/04/16 10:35:03;;;;;;;9.55;5.13;;;11.70;99.90;;;;;;4996766;28;20030;-78
2023/04/16 10:37:32;;;;;;;9.55;4.90;;;11.60;99.90;;;;;;4994787;28;20097;-78
2023/04/16 10:39:58;;;;;;;8.43;4.65;;;11.60;99.90;;;;;;4995163;28;20034;-79
2023/04/16 10:42:24;;;;;;;8.85;5.03;;;11.60;99.90;;;;;;4994916;28;20479;-78
2023/04/16 10:44:50;;;;;;;7.35;4.30;;;11.50;99.90;;;;;;4994572;28;20555;-77
2023/04/16 10:47:16;;;;;;;9.32;5.35;;;11.50;99.90;;;;;;4994396;28;20153;-76
2023/04/16 10:49:42;;;;;;;8.93;5.22;;;11.50;99.90;;;;;;4995133;28;20038;-77
2023/04/16 10:52:18;;;;;;;9.70;5.65;;;11.50;99.90;;;;;;4994456;28;20030;-76
2023/04/16 10:54:45;;;;;;;10.32;5.43;;;11.50;99.90;;;;;;4994800;28;20026;-76
2023/04/16 10:57:16;;;;;;;8.65;5.00;;;11.50;99.90;;;;;;4994950;28;20066;-75
2023/04/16 10:59:43;;;;;;;10.00;5.32;;;11.50;99.90;;;;;;4996196;28;20056;-75
2023/04/16 11:02:16;;;;;;;7.90;4.93;;;11.50;99.90;;;;;;4995524;28;20512;-76
2023/04/16 11:04:44;;;;;;;8.65;4.95;;;11.50;99.90;;;;;;4994129;28;20391;-74
2023/04/16 11:07:20;;;;;;;9.77;5.22;;;11.40;99.90;;;;;;4994201;28;20029;-76
2023/04/16 11:10:01;;;;;;;9.65;5.00;;;11.40;99.90;;;;;;4994561;28;20387;-75
2023/04/16 11:12:38;;;;;;;9.52;5.50;;;11.40;99.90;;;;;;4993307;28;20034;-74
2023/04/16 11:15:12;;;;;;;9.68;5.10;;;11.30;99.90;;;;;;4995620;28;20065;-74
2023/04/16 11:17:37;;;;;;;9.85;5.50;;;11.30;99.90;;;;;;4995402;28;20094;-74
2023/04/16 11:20:18;;;;;;;10.75;5.75;;;11.40;99.90;;;;;;4995385;28;20113;-75
2023/04/16 11:22:44;;;;;;;10.10;5.45;;;11.40;99.90;;;;;;4995131;28;20486;-75
2023/04/16 11:25:10;;;;;;;9.38;5.63;;;11.40;99.90;;;;;;4995160;28;20519;-74
2023/04/16 11:27:36;;;;;;;8.48;5.07;;;11.40;99.90;;;;;;4994464;28;20379;-74
2023/04/16 11:30:08;;;;;;;16.60;9.23;;;11.40;99.90;;;;;;4995031;28;20034;-75
2023/04/16 11:32:35;;;;;;;17.58;9.77;;;11.40;99.90;;;;;;4992588;28;20046;-74
2023/04/16 11:35:03;;;;;;;9.40;5.35;;;11.50;99.90;;;;;;4993393;28;20022;-75
2023/04/16 11:37:34;;;;;;;9.68;5.57;;;11.50;99.90;;;;;;4992264;28;20368;-75
2023/04/16 11:40:00;;;;;;;9.57;4.85;;;11.50;99.90;;;;;;4993222;28;20030;-74
2023/04/16 11:42:27;;;;;;;7.35;4.50;;;11.50;99.90;;;;;;4992472;28;20057;-75
2023/04/16 11:44:57;;;;;;;8.07;4.82;;;11.40;99.90;;;;;;4993187;28;20587;-75
2023/04/16 11:47:23;;;;;;;8.38;4.40;;;11.40;99.90;;;;;;4992782;28;20045;-75
2023/04/16 11:49:50;;;;;;;10.07;5.03;;;11.40;99.90;;;;;;4993440;28;20077;-75
2023/04/16 11:52:30;;;;;;;7.45;4.60;;;11.40;99.90;;;;;;4994346;28;20464;-75
2023/04/16 11:54:56;;;;;;;8.35;4.40;;;11.50;99.90;;;;;;4992782;28;20027;-75
2023/04/16 11:57:26;;;;;;;8.50;5.03;;;11.50;99.90;;;;;;4993795;28;20415;-75
2023/04/16 11:59:52;;;;;;;7.80;4.45;;;11.50;99.90;;;;;;4993005;28;20049;-75
2023/04/16 12:02:34;;;;;;;7.80;4.45;;;11.40;99.90;;;;;;4993675;28;20077;-74
2023/04/16 12:04:59;;;;;;;6.60;3.65;;;11.30;99.90;;;;;;4994239;28;20464;-74
2023/04/16 12:07:26;;;;;;;8.00;4.20;;;11.20;99.90;;;;;;4992315;28;20062;-74
2023/04/16 12:10:05;;;;;;;6.32;3.80;;;11.20;99.90;;;;;;4994149;28;20510;-75
2023/04/16 12:12:31;;;;;;;7.63;3.88;;;11.20;99.90;;;;;;4993803;28;20189;-75
2023/04/16 12:15:02;;;;;;;7.65;3.95;;;11.10;99.90;;;;;;4994074;28;20037;-74
2023/04/16 12:17:29;;;;;;;8.27;4.30;;;11.10;99.90;;;;;;4992223;28;20038;-75
2023/04/16 12:20:00;;;;;;;7.28;4.38;;;11.10;99.90;;;;;;4992758;28;20096;-74
2023/04/16 12:22:37;;;;;;;8.48;4.28;;;11.10;99.90;;;;;;4993013;28;20034;-75
2023/04/16 12:25:05;;;;;;;8.85;4.43;;;11.10;99.90;;;;;;4993620;28;20475;-75
2023/04/16 12:27:49;;;;;;;5.68;3.60;;;11.10;99.90;;;;;;4993219;28;20069;-74
2023/04/16 12:30:19;;;;;;;9.15;4.13;;;11.00;99.90;;;;;;4992720;28;20031;-75
2023/04/16 12:32:49;;;;;;;7.35;4.25;;;11.10;99.90;;;;;;4993487;28;20428;-74
2023/04/16 12:35:33;;;;;;;6.38;3.75;;;10.90;99.90;;;;;;4992505;28;20057;-75
2023/04/16 12:37:59;;;;;;;6.38;3.55;;;10.90;99.90;;;;;;4992621;28;20080;-75